createdAt,value
2019-05-29T00:01:24.511Z,56.84
2019-05-29T00:03:55.095Z,56.87
2019-05-29T00:06:25.475Z,56.91
2019-05-29T00:08:55.939Z,56.94
2019-05-29T00:13:54.095Z,57.04
2019-05-29T00:16:26.265Z,57.06
2019-05-29T00:18:58.344Z,57.07
2019-05-29T00:21:47.928Z,57.08
2019-05-29T00:24:21.053Z,57.12
2019-05-29T00:26:51.449Z,57.17
2019-05-29T00:29:22.053Z,57.18
2019-05-29T00:31:53.744Z,57.22
2019-05-29T00:34:24.378Z,57.26
2019-05-29T00:36:54.643Z,57.28
2019-05-29T00:39:27.172Z,57.33
2019-05-29T00:41:57.628Z,57.35
2019-05-29T00:44:34.314Z,57.38
2019-05-29T00:47:02.008Z,57.43
2019-05-29T00:49:38.285Z,57.44
2019-05-29T00:52:08.633Z,57.48
2019-05-29T00:54:38.931Z,57.52
2019-05-29T00:57:10.796Z,57.56
2019-05-29T00:59:43.068Z,57.60
2019-05-29T01:02:13.801Z,57.64
2019-05-29T01:04:44.259Z,57.67
2019-05-29T01:07:16.289Z,57.67
2019-05-29T01:09:46.646Z,57.72
2019-05-29T01:12:19.172Z,57.79
2019-05-29T01:14:50.744Z,57.82
2019-05-29T01:17:21.886Z,57.87
2019-05-29T01:19:52.733Z,57.89
2019-05-29T01:22:24.647Z,57.91
2019-05-29T01:24:56.413Z,57.96
2019-05-29T01:27:26.763Z,58.01
2019-05-29T01:29:58.812Z,58.04
2019-05-29T01:32:33.223Z,58.08
2019-05-29T01:35:03.611Z,58.12
2019-05-29T01:37:35.259Z,58.16
2019-05-29T01:40:19.161Z,58.19
2019-05-29T01:42:38.496Z,58.22
2019-05-29T01:45:09.101Z,58.26
2019-05-29T01:47:39.436Z,58.28
2019-05-29T01:50:09.865Z,58.31
2019-05-29T01:52:42.744Z,58.33
2019-05-29T01:55:21.744Z,58.37
2019-05-29T01:57:52.070Z,58.40
2019-05-29T02:00:24.154Z,58.41
2019-05-29T02:02:56.225Z,58.46
2019-05-29T02:05:28.173Z,58.47
2019-05-29T02:07:59.680Z,58.53
2019-05-29T02:10:30.662Z,58.55
2019-05-29T02:13:01.285Z,58.60
2019-05-29T02:15:33.797Z,58.61
2019-05-29T02:18:05.375Z,58.62
2019-05-29T02:20:35.639Z,58.68
2019-05-29T02:23:05.941Z,58.71
2019-05-29T02:25:36.269Z,58.73
2019-05-29T02:28:06.532Z,58.77
2019-05-29T02:30:37.217Z,58.78
2019-05-29T02:33:10.550Z,58.81
2019-05-29T02:35:43.593Z,58.86
2019-05-29T02:38:18.285Z,58.87
2019-05-29T02:40:48.600Z,58.91
2019-05-29T02:43:21.322Z,58.95
2019-05-29T02:45:55.226Z,58.97
2019-05-29T02:48:27.524Z,59.01
2019-05-29T02:51:00.006Z,59.04
2019-05-29T02:53:30.978Z,59.08
2019-05-29T02:56:03.527Z,59.12
2019-05-29T02:58:33.959Z,59.14
2019-05-29T03:01:04.512Z,59.17
2019-05-29T03:03:39.904Z,59.21
2019-05-29T03:06:13.206Z,59.23
2019-05-29T03:08:43.886Z,59.26
2019-05-29T03:11:15.057Z,59.29
2019-05-29T03:13:45.974Z,59.32
2019-05-29T03:16:16.568Z,59.38
2019-05-29T03:18:46.877Z,59.39
2019-05-29T03:21:18.471Z,59.42
2019-05-29T03:23:50.531Z,59.45
2019-05-29T03:26:24.613Z,59.48
2019-05-29T03:28:53.220Z,59.52
2019-05-29T03:31:23.514Z,59.54
2019-05-29T03:33:54.518Z,59.56
2019-05-29T03:36:28.407Z,59.59
2019-05-29T03:38:57.779Z,59.63
2019-05-29T03:41:32.760Z,59.68
2019-05-29T03:44:09.870Z,59.72
2019-05-29T03:46:45.238Z,59.76
2019-05-29T03:49:11.851Z,59.79
2019-05-29T03:51:42.183Z,59.83
2019-05-29T03:54:13.553Z,59.86
2019-05-29T03:56:43.859Z,59.90
2019-05-29T03:59:16.758Z,59.95
2019-05-29T04:01:47.052Z,59.98
2019-05-29T04:04:17.360Z,60.01
2019-05-29T04:06:47.764Z,60.05
2019-05-29T04:09:18.052Z,60.10
2019-05-29T04:11:48.460Z,60.13
2019-05-29T04:14:18.801Z,60.17
2019-05-29T04:16:59.518Z,60.22
2019-05-29T04:19:27.667Z,60.26
2019-05-29T04:22:03.755Z,60.29
2019-05-29T04:24:41.156Z,60.33
2019-05-29T04:27:13.458Z,60.37
2019-05-29T04:29:44.970Z,60.40
2019-05-29T04:32:15.404Z,60.46
2019-05-29T04:34:52.708Z,60.48
2019-05-29T04:37:23.869Z,60.54
2019-05-29T04:39:54.465Z,60.57
2019-05-29T04:42:26.170Z,60.62
2019-05-29T04:44:58.883Z,60.62
2019-05-29T04:47:30.731Z,60.67
2019-05-29T04:50:02.958Z,60.69
2019-05-29T04:52:39.841Z,60.74
2019-05-29T04:55:10.287Z,60.76
2019-05-29T04:57:40.576Z,60.77
2019-05-29T05:00:13.001Z,60.83
2019-05-29T05:02:43.718Z,60.83
2019-05-29T05:05:14.378Z,60.84
2019-05-29T05:07:44.693Z,60.87
2019-05-29T05:10:24.766Z,60.92
2019-05-29T05:12:56.967Z,60.95
2019-05-29T05:15:29.587Z,60.97
2019-05-29T05:18:00.426Z,61.00
2019-05-29T05:20:31.873Z,61.00
2019-05-29T05:23:02.351Z,61.06
2019-05-29T05:25:34.687Z,61.10
2019-05-29T05:28:12.288Z,61.14
2019-05-29T05:30:44.693Z,61.19
2019-05-29T05:33:16.667Z,61.20
2019-05-29T05:35:46.966Z,61.21
2019-05-29T05:38:17.275Z,61.26
2019-05-29T05:40:47.858Z,61.31
2019-05-29T05:43:24.194Z,61.31
2019-05-29T05:45:52.917Z,61.31
2019-05-29T05:48:26.700Z,61.34
2019-05-29T05:50:59.630Z,61.34
2019-05-29T05:53:31.237Z,61.36
2019-05-29T05:56:01.996Z,61.37
2019-05-29T05:58:35.696Z,61.40
2019-05-29T06:01:10.345Z,61.43
2019-05-29T06:03:43.212Z,61.50
2019-05-29T06:06:13.513Z,61.54
2019-05-29T06:08:45.192Z,61.57
2019-05-29T06:11:15.514Z,61.57
2019-05-29T06:13:45.855Z,61.58
2019-05-29T06:16:16.170Z,61.57
2019-05-29T06:18:46.463Z,61.62
2019-05-29T06:21:16.745Z,61.62
2019-05-29T06:23:47.038Z,61.71
2019-05-29T06:26:17.752Z,61.83
2019-05-29T06:28:48.490Z,61.83
2019-05-29T06:31:18.925Z,61.87
2019-05-29T06:33:49.227Z,61.96
2019-05-29T06:36:19.880Z,62.05
2019-05-29T06:38:50.295Z,61.98
2019-05-29T06:41:20.592Z,61.95
2019-05-29T06:43:50.895Z,61.95
2019-05-29T06:46:21.655Z,62.04
2019-05-29T06:48:59.594Z,62.14
2019-05-29T06:51:24.122Z,62.04
2019-05-29T06:53:54.416Z,62.03
2019-05-29T06:56:24.753Z,61.98
2019-05-29T06:58:57.098Z,61.87
2019-05-29T07:01:27.722Z,61.88
2019-05-29T07:04:11.349Z,61.89
2019-05-29T07:06:30.984Z,62.00
2019-05-29T07:09:01.181Z,62.04
2019-05-29T07:11:31.491Z,61.99
2019-05-29T07:14:02.265Z,61.89
2019-05-29T07:16:43.690Z,61.86
2019-05-29T07:19:24.563Z,61.81
2019-05-29T07:21:40.760Z,61.88
2019-05-29T07:24:11.251Z,62.01
2019-05-29T07:26:43.053Z,62.04
2019-05-29T07:29:14.900Z,61.95
2019-05-29T07:31:45.614Z,61.96
2019-05-29T07:34:17.934Z,61.88
2019-05-29T07:37:04.066Z,61.96
2019-05-29T07:39:34.370Z,61.97
2019-05-29T07:42:04.859Z,62.11
2019-05-29T07:44:35.199Z,62.14
2019-05-29T07:47:05.624Z,62.22
2019-05-29T07:49:39.906Z,62.18
2019-05-29T07:52:07.992Z,62.29
2019-05-29T07:54:39.995Z,62.22
2019-05-29T07:57:10.734Z,62.12
2019-05-29T07:59:41.032Z,62.02
2019-05-29T08:02:11.424Z,61.94
2019-05-29T08:04:47.194Z,61.86
2019-05-29T08:07:19.749Z,61.79
2019-05-29T08:09:50.386Z,61.76
2019-05-29T08:12:20.670Z,61.73
2019-05-29T08:14:52.320Z,61.77
2019-05-29T08:17:27.551Z,61.74
2019-05-29T08:20:06.570Z,61.72
2019-05-29T08:22:35.040Z,61.78
2019-05-29T08:25:06.134Z,61.80
2019-05-29T08:27:40.563Z,61.86
2019-05-29T08:30:11.468Z,61.92
2019-05-29T08:32:43.656Z,61.94
2019-05-29T08:35:14.129Z,61.97
2019-05-29T08:37:47.424Z,61.93
2019-05-29T08:40:17.908Z,61.82
2019-05-29T08:42:49.333Z,61.77
2019-05-29T08:45:20.267Z,61.86
2019-05-29T08:47:53.309Z,61.64
2019-05-29T08:50:25.949Z,61.56
2019-05-29T08:52:57.581Z,61.64
2019-05-29T08:55:32.883Z,61.61
2019-05-29T08:58:08.200Z,61.48
2019-05-29T09:00:38.551Z,61.36
2019-05-29T09:03:08.944Z,61.30
2019-05-29T09:05:44.555Z,61.33
2019-05-29T09:08:15.563Z,61.07
2019-05-29T09:10:53.491Z,61.11
2019-05-29T09:13:20.418Z,60.96
2019-05-29T09:15:53.615Z,60.84
2019-05-29T09:18:25.506Z,60.90
2019-05-29T09:21:03.275Z,60.68
2019-05-29T09:23:28.160Z,60.61
2019-05-29T09:26:14.179Z,60.65
2019-05-29T09:28:33.603Z,60.48
2019-05-29T09:31:04.170Z,60.30
2019-05-29T09:33:35.811Z,60.14
2019-05-29T09:36:06.125Z,60.25
2019-05-29T09:38:38.677Z,60.13
2019-05-29T09:41:09.311Z,60.12
2019-05-29T09:43:57.414Z,59.83
2019-05-29T09:46:15.225Z,59.83
2019-05-29T09:48:50.051Z,59.66
2019-05-29T09:51:22.404Z,59.67
2019-05-29T09:53:54.358Z,59.48
2019-05-29T09:56:25.600Z,59.42
2019-05-29T09:58:57.853Z,59.22
2019-05-29T10:01:32.245Z,59.05
2019-05-29T10:04:06.185Z,59.22
2019-05-29T10:06:36.333Z,58.95
2019-05-29T10:09:08.920Z,58.94
2019-05-29T10:11:44.531Z,58.72
2019-05-29T10:14:17.255Z,58.64
2019-05-29T10:16:48.978Z,58.48
2019-05-29T10:19:21.730Z,58.41
2019-05-29T10:22:00.745Z,58.43
2019-05-29T10:24:32.615Z,58.47
2019-05-29T10:27:08.899Z,58.19
2019-05-29T10:29:39.183Z,58.17
2019-05-29T10:32:09.676Z,57.85
2019-05-29T10:34:40.409Z,57.73
2019-05-29T10:37:18.085Z,57.59
2019-05-29T10:39:48.797Z,57.67
2019-05-29T10:42:22.212Z,57.53
2019-05-29T10:44:53.238Z,57.48
2019-05-29T10:47:29.267Z,57.29
2019-05-29T10:50:06.450Z,57.22
2019-05-29T10:52:36.803Z,57.11
2019-05-29T10:55:07.981Z,56.86
2019-05-29T10:57:46.998Z,56.83
2019-05-29T11:00:19.837Z,56.55
2019-05-29T11:02:53.000Z,56.53
2019-05-29T11:05:22.425Z,56.45
2019-05-29T11:07:54.023Z,56.37
2019-05-29T11:10:24.393Z,56.17
2019-05-29T11:12:55.056Z,56.00
2019-05-29T11:15:26.692Z,55.76
2019-05-29T11:17:57.376Z,55.82
2019-05-29T11:20:32.184Z,55.57
2019-05-29T11:23:02.528Z,55.39
2019-05-29T11:25:36.946Z,55.19
2019-05-29T11:28:09.904Z,55.09
2019-05-29T11:30:40.312Z,54.92
2019-05-29T11:33:12.109Z,54.82
2019-05-29T11:35:57.701Z,54.75
2019-05-29T11:38:20.050Z,54.58
2019-05-29T11:41:22.345Z,54.36
2019-05-29T11:43:29.641Z,54.28
2019-05-29T11:46:01.791Z,54.25
2019-05-29T11:48:32.327Z,53.99
2019-05-29T11:51:02.764Z,53.81
2019-05-29T11:53:33.308Z,53.49
2019-05-29T11:56:05.542Z,53.38
2019-05-29T11:58:35.907Z,53.28
2019-05-29T12:01:08.507Z,53.20
2019-05-29T12:04:05.517Z,53.13
2019-05-29T12:06:12.586Z,52.96
2019-05-29T12:08:45.778Z,52.89
2019-05-29T12:11:19.469Z,52.72
2019-05-29T12:13:49.778Z,52.67
2019-05-29T12:16:20.247Z,52.51
2019-05-29T12:18:51.543Z,52.33
2019-05-29T12:21:22.470Z,52.29
2019-05-29T12:23:54.024Z,52.20
2019-05-29T12:26:25.488Z,52.05
2019-05-29T12:29:02.036Z,51.83
2019-05-29T12:31:29.532Z,51.76
2019-05-29T12:34:16.462Z,51.55
2019-05-29T12:36:36.819Z,51.46
2019-05-29T12:39:09.144Z,51.37
2019-05-29T12:41:39.749Z,51.29
2019-05-29T12:44:11.074Z,51.13
2019-05-29T12:46:43.160Z,51.03
2019-05-29T12:49:19.551Z,50.88
2019-05-29T12:51:49.854Z,50.80
2019-05-29T12:54:20.238Z,50.56
2019-05-29T12:56:55.804Z,50.39
2019-05-29T12:59:26.246Z,50.25
2019-05-29T13:01:58.555Z,50.24
2019-05-29T13:04:28.944Z,50.15
2019-05-29T13:07:04.571Z,49.99
2019-05-29T13:09:34.806Z,49.96
2019-05-29T13:12:07.425Z,49.91
2019-05-29T13:14:37.869Z,49.83
2019-05-29T13:17:08.701Z,49.62
2019-05-29T13:19:44.790Z,49.45
2019-05-29T13:22:15.141Z,49.31
2019-05-29T13:24:45.434Z,49.15
2019-05-29T13:27:19.793Z,49.08
2019-05-29T13:29:51.584Z,49.05
2019-05-29T13:32:21.940Z,48.90
2019-05-29T13:34:55.816Z,48.79
2019-05-29T13:37:26.603Z,48.65
2019-05-29T13:39:58.524Z,48.54
2019-05-29T13:42:29.985Z,48.46
2019-05-29T13:45:06.003Z,48.37
2019-05-29T13:47:37.261Z,48.08
2019-05-29T13:50:12.112Z,47.89
2019-05-29T13:52:42.650Z,47.82
2019-05-29T13:55:17.985Z,47.74
2019-05-29T13:57:50.810Z,47.68
2019-05-29T14:00:33.803Z,47.63
2019-05-29T14:02:54.846Z,47.50
2019-05-29T14:05:26.086Z,47.43
2019-05-29T14:07:58.463Z,47.43
2019-05-29T14:10:29.238Z,47.34
2019-05-29T14:13:00.867Z,47.20
2019-05-29T14:15:32.504Z,47.05
2019-05-29T14:18:06.861Z,46.92
2019-05-29T14:20:37.747Z,46.88
2019-05-29T14:23:09.449Z,46.87
2019-05-29T14:25:40.090Z,46.78
2019-05-29T14:28:10.450Z,46.75
2019-05-29T14:30:41.048Z,46.63
2019-05-29T14:33:14.908Z,46.50
2019-05-29T14:35:44.063Z,46.43
2019-05-29T14:38:17.441Z,46.33
2019-05-29T14:40:47.965Z,46.17
2019-05-29T14:43:24.166Z,46.10
2019-05-29T14:45:54.859Z,46.04
2019-05-29T14:48:25.328Z,45.94
2019-05-29T14:50:55.631Z,45.86
2019-05-29T14:53:28.137Z,45.75
2019-05-29T14:55:58.500Z,45.65
2019-05-29T14:58:31.273Z,45.52
2019-05-29T15:01:03.114Z,45.47
2019-05-29T15:03:33.787Z,45.35
2019-05-29T15:06:05.542Z,45.24
2019-05-29T15:08:35.830Z,45.16
2019-05-29T15:11:08.308Z,45.12
2019-05-29T15:13:38.637Z,45.05
2019-05-29T15:16:09.175Z,44.96
2019-05-29T15:18:39.914Z,44.87
2019-05-29T15:21:17.917Z,44.76
2019-05-29T15:23:50.897Z,44.74
2019-05-29T15:26:21.322Z,44.67
2019-05-29T15:28:52.771Z,44.54
2019-05-29T15:31:25.292Z,44.44
2019-05-29T15:33:56.256Z,44.35
2019-05-29T15:36:26.864Z,44.25
2019-05-29T15:38:57.855Z,44.08
2019-05-29T15:41:28.303Z,43.97
2019-05-29T15:44:00.070Z,43.88
2019-05-29T15:46:30.413Z,43.75
2019-05-29T15:49:00.765Z,43.65
2019-05-29T15:51:36.272Z,43.59
2019-05-29T15:54:07.164Z,43.48
2019-05-29T15:56:37.631Z,43.40
2019-05-29T15:59:09.875Z,43.31
2019-05-29T16:01:40.385Z,43.23
2019-05-29T16:04:11.664Z,43.16
2019-05-29T16:06:42.198Z,43.11
2019-05-29T16:09:14.203Z,43.06
2019-05-29T16:11:45.044Z,42.97
2019-05-29T16:14:15.447Z,42.88
2019-05-29T16:16:45.883Z,42.84
2019-05-29T16:19:16.326Z,42.70
2019-05-29T16:21:46.843Z,42.56
2019-05-29T16:24:17.130Z,42.51
2019-05-29T16:26:48.418Z,42.46
2019-05-29T16:29:19.703Z,42.42
2019-05-29T16:31:50.138Z,42.35
2019-05-29T16:34:21.954Z,42.25
2019-05-29T16:36:55.218Z,42.20
2019-05-29T16:39:25.626Z,42.13
2019-05-29T16:41:56.277Z,42.07
2019-05-29T16:44:29.479Z,42.00
2019-05-29T16:46:58.991Z,41.96
2019-05-29T16:49:29.264Z,41.88
2019-05-29T16:52:01.249Z,41.79
2019-05-29T16:54:31.952Z,41.74
2019-05-29T16:57:02.199Z,41.71
2019-05-29T16:59:32.793Z,41.65
2019-05-29T17:02:04.502Z,41.60
2019-05-29T17:04:37.759Z,41.52
2019-05-29T17:07:10.212Z,41.47
2019-05-29T17:09:40.474Z,41.42
2019-05-29T17:12:14.729Z,41.36
2019-05-29T17:14:49.424Z,41.31
2019-05-29T17:17:22.700Z,41.26
2019-05-29T17:19:53.163Z,41.21
2019-05-29T17:22:24.830Z,41.14
2019-05-29T17:24:56.505Z,41.09
2019-05-29T17:27:27.435Z,41.04
2019-05-29T17:29:59.959Z,40.98
2019-05-29T17:32:30.388Z,40.93
2019-05-29T17:35:03.584Z,40.87
2019-05-29T17:37:33.896Z,40.82
2019-05-29T17:40:09.965Z,40.77
2019-05-29T17:42:40.393Z,40.74
2019-05-29T17:45:12.481Z,40.70
2019-05-29T17:47:46.008Z,40.65
2019-05-29T17:50:19.130Z,40.64
2019-05-29T17:52:49.587Z,40.60
2019-05-29T17:55:21.812Z,40.55
2019-05-29T17:57:52.004Z,40.51
2019-05-29T18:00:24.768Z,40.46
2019-05-29T18:02:56.818Z,40.44
2019-05-29T18:05:28.012Z,40.39
2019-05-29T18:08:01.716Z,40.35
2019-05-29T18:10:30.930Z,40.31
2019-05-29T18:13:01.254Z,40.27
2019-05-29T18:15:31.618Z,40.24
2019-05-29T18:18:01.978Z,40.21
2019-05-29T18:20:32.509Z,40.16
2019-05-29T18:23:02.964Z,40.12
2019-05-29T18:25:33.445Z,40.09
2019-05-29T18:28:04.716Z,40.06
2019-05-29T18:30:36.370Z,40.03
2019-05-29T18:33:08.347Z,40.00
2019-05-29T18:35:41.771Z,39.96
2019-05-29T18:38:12.136Z,39.93
2019-05-29T18:40:42.484Z,39.89
2019-05-29T18:43:12.882Z,39.86
2019-05-29T18:45:44.000Z,39.82
2019-05-29T18:48:14.313Z,39.78
2019-05-29T18:50:45.098Z,39.76
2019-05-29T18:53:20.638Z,39.73
2019-05-29T18:55:53.278Z,39.71
2019-05-29T18:58:26.458Z,39.65
2019-05-29T19:00:57.113Z,39.62
2019-05-29T19:03:27.604Z,39.61
2019-05-29T19:05:58.060Z,39.59
2019-05-29T19:08:32.953Z,39.56
2019-05-29T19:11:03.409Z,39.53
2019-05-29T19:13:33.655Z,39.52
2019-05-29T19:16:07.808Z,39.46
2019-05-29T19:18:41.739Z,39.45
2019-05-29T19:21:14.689Z,39.40
2019-05-29T19:23:45.010Z,39.37
2019-05-29T19:26:15.346Z,39.35
2019-05-29T19:28:45.705Z,39.32
2019-05-29T19:31:18.875Z,39.29
2019-05-29T19:33:49.214Z,39.28
2019-05-29T19:36:19.470Z,39.25
2019-05-29T19:38:50.685Z,39.24
2019-05-29T19:41:21.089Z,39.20
2019-05-29T19:43:52.381Z,39.14
2019-05-29T19:46:22.754Z,39.13
2019-05-29T19:48:53.106Z,39.12
2019-05-29T19:51:25.139Z,39.08
2019-05-29T19:53:55.612Z,39.05
2019-05-29T19:56:25.922Z,39.01
2019-05-29T19:58:56.214Z,38.99
2019-05-29T20:01:32.855Z,38.95
2019-05-29T20:03:58.547Z,38.91
2019-05-29T20:06:29.150Z,38.89
2019-05-29T20:08:59.490Z,38.86
2019-05-29T20:11:33.528Z,38.84
2019-05-29T20:14:07.388Z,38.81
2019-05-29T20:16:36.323Z,38.80
2019-05-29T20:19:06.625Z,38.78
2019-05-29T20:21:36.932Z,38.75
2019-05-29T20:24:07.211Z,38.75
2019-05-29T20:26:43.593Z,38.72
2019-05-29T20:29:14.806Z,38.70
2019-05-29T20:31:45.103Z,38.68
2019-05-29T20:34:16.045Z,38.66
2019-05-29T20:36:46.637Z,38.62
2019-05-29T20:39:16.960Z,38.58
2019-05-29T20:41:49.751Z,38.54
2019-05-29T20:44:20.047Z,38.53
2019-05-29T20:46:50.341Z,38.51
2019-05-29T20:49:21.026Z,38.50
2019-05-29T20:51:54.102Z,38.49
2019-05-29T20:54:24.767Z,38.47
2019-05-29T20:56:57.357Z,38.44
2019-05-29T20:59:27.649Z,38.46
2019-05-29T21:01:58.024Z,38.40
2019-05-29T21:04:28.912Z,38.40
2019-05-29T21:06:59.213Z,38.40
2019-05-29T21:09:31.018Z,38.40
2019-05-29T21:12:01.301Z,38.36
2019-05-29T21:14:31.607Z,38.36
2019-05-29T21:17:01.992Z,38.34
2019-05-29T21:19:32.353Z,38.34
2019-05-29T21:22:05.868Z,38.37
2019-05-29T21:24:36.438Z,38.38
2019-05-29T21:27:07.517Z,38.37
2019-05-29T21:29:39.547Z,38.38
2019-05-29T21:32:09.960Z,38.39
2019-05-29T21:34:41.912Z,38.37
2019-05-29T21:37:12.312Z,38.37
2019-05-29T21:39:46.530Z,38.36
2019-05-29T21:42:17.078Z,38.37
2019-05-29T21:44:47.890Z,38.36
2019-05-29T21:47:18.520Z,38.35
2019-05-29T21:49:50.588Z,38.36
2019-05-29T21:52:20.881Z,38.34
2019-05-29T21:54:51.776Z,38.36
2019-05-29T21:57:22.254Z,38.37
2019-05-29T21:59:52.563Z,38.35
2019-05-29T22:02:23.128Z,38.35
2019-05-29T22:04:53.374Z,38.34
2019-05-29T22:07:23.777Z,38.33
2019-05-29T22:09:54.499Z,38.34
2019-05-29T22:12:28.381Z,38.34
2019-05-29T22:15:02.843Z,38.36
2019-05-29T22:17:33.047Z,38.40
2019-05-29T22:20:04.349Z,38.41
2019-05-29T22:22:37.385Z,38.40
2019-05-29T22:25:08.137Z,38.39
2019-05-29T22:27:38.881Z,38.39
2019-05-29T22:30:12.576Z,38.37
2019-05-29T22:32:43.451Z,38.36
2019-05-29T22:35:14.753Z,38.38
2019-05-29T22:37:45.907Z,38.37
2019-05-29T22:40:16.231Z,38.37
2019-05-29T22:42:46.611Z,38.35
2019-05-29T22:45:18.648Z,38.35
2019-05-29T22:47:48.927Z,38.33
2019-05-29T22:50:19.216Z,38.33
2019-05-29T22:52:49.523Z,38.31
2019-05-29T22:55:21.847Z,38.31
2019-05-29T22:57:53.881Z,38.30
2019-05-29T23:00:25.145Z,38.29
2019-05-29T23:02:56.127Z,38.28
2019-05-29T23:05:29.932Z,38.25
2019-05-29T23:08:02.743Z,38.24
2019-05-29T23:10:36.006Z,38.25
2019-05-29T23:13:06.420Z,38.23
2019-05-29T23:15:38.178Z,38.23
2019-05-29T23:18:08.867Z,38.24
2019-05-29T23:20:39.627Z,38.26
2019-05-29T23:23:11.863Z,38.24
2019-05-29T23:25:43.281Z,38.28
2019-05-29T23:28:14.489Z,38.29
2019-05-29T23:30:47.628Z,38.33
2019-05-29T23:33:17.941Z,38.34
2019-05-29T23:35:48.219Z,38.36
2019-05-29T23:38:19.624Z,38.40
2019-05-29T23:40:49.963Z,38.42
2019-05-29T23:43:20.232Z,38.45
2019-05-29T23:45:57.634Z,38.44
2019-05-29T23:48:29.891Z,38.50
2019-05-29T23:51:00.245Z,38.49
2019-05-29T23:53:32.886Z,38.50
2019-05-29T23:56:04.004Z,38.54
2019-05-29T23:58:34.348Z,38.54
